Terminal Aerodrome Forecast
Issued by NWS

Home | Current Version | Previous Version | Graphics & Text | Print | Product List | Glossary On
Versions: 1 2 3 4 5 6 7 8 9 10 11 12 13
139
FTUS43 KMPX 221120
TAFAXN
TAF
KAXN 221120Z 2212/2312 25005KT P6SM FEW250
     FM221700 27010KT P6SM FEW050 SCT250
     FM230200 22006KT P6SM SCT250
     FM230900 32005KT P6SM SCT100 BKN250=

USA.gov is the U.S. government's official web portal to all federal, state and local government web resources and services.